createdAt,value
2022-08-02T00:01:04.765Z,18.71
2022-08-02T00:03:33.334Z,18.72
2022-08-02T00:06:02.074Z,18.73
2022-08-02T00:08:30.653Z,18.74
2022-08-02T00:10:59.165Z,18.74
2022-08-02T00:13:27.801Z,18.75
2022-08-02T00:15:56.363Z,18.76
2022-08-02T00:18:25.055Z,18.76
2022-08-02T00:20:53.610Z,18.76
2022-08-02T00:23:22.255Z,18.76
2022-08-02T00:25:55.232Z,18.75
2022-08-02T00:28:27.662Z,18.75
2022-08-02T00:31:00.441Z,18.75
2022-08-02T00:34:26.473Z,18.75
2022-08-02T00:36:17.720Z,18.75
2022-08-02T00:38:48.106Z,18.74
2022-08-02T00:41:20.877Z,18.74
2022-08-02T00:43:52.189Z,18.74
2022-08-02T00:46:21.641Z,18.73
2022-08-02T00:48:50.269Z,18.72
2022-08-02T00:51:18.965Z,18.71
2022-08-02T00:53:47.561Z,18.71
2022-08-02T00:56:16.104Z,18.69
2022-08-02T00:58:44.608Z,18.69
2022-08-02T01:01:13.244Z,18.68
2022-08-02T01:03:42.080Z,18.67
2022-08-02T01:06:11.533Z,18.66
2022-08-02T01:08:40.462Z,18.65
2022-08-02T01:11:09.066Z,18.64
2022-08-02T01:13:37.783Z,18.63
2022-08-02T01:16:16.392Z,18.63
2022-08-02T01:18:53.727Z,18.63
2022-08-02T01:21:49.259Z,18.62
2022-08-02T01:24:46.503Z,18.62
2022-08-02T01:27:54.708Z,18.60
2022-08-02T01:30:23.649Z,18.58
2022-08-02T01:33:00.131Z,18.58
2022-08-02T01:35:50.485Z,18.56
2022-08-02T01:38:42.410Z,18.55
2022-08-02T01:41:18.329Z,18.53
2022-08-02T01:43:51.901Z,18.51
2022-08-02T01:46:21.640Z,18.49
2022-08-02T01:48:50.930Z,18.47
2022-08-02T01:51:40.514Z,18.45
2022-08-02T01:54:17.745Z,18.42
2022-08-02T01:56:50.359Z,18.40
2022-08-02T01:59:23.205Z,18.37
2022-08-02T02:01:54.441Z,18.35
2022-08-02T02:04:24.670Z,18.31
2022-08-02T02:06:54.833Z,18.27
2022-08-02T02:09:29.524Z,18.23
2022-08-02T02:12:05.227Z,18.18
2022-08-02T02:14:51.448Z,18.13
2022-08-02T02:17:52.922Z,18.09
2022-08-02T02:20:17.325Z,18.04
2022-08-02T02:22:48.490Z,17.99
2022-08-02T02:25:28.221Z,17.94
2022-08-02T02:28:14.089Z,17.90
2022-08-02T02:30:48.931Z,17.85
2022-08-02T02:33:20.679Z,17.82
2022-08-02T02:35:53.061Z,17.79
2022-08-02T02:38:23.209Z,17.76
2022-08-02T02:40:52.691Z,17.72
2022-08-02T02:43:23.021Z,17.69
2022-08-02T02:45:52.037Z,17.66
2022-08-02T02:48:21.749Z,17.65
2022-08-02T02:50:51.073Z,17.61
2022-08-02T02:53:20.852Z,17.58
2022-08-02T02:56:01.757Z,17.56
2022-08-02T02:58:33.093Z,17.52
2022-08-02T03:01:20.740Z,17.50
2022-08-02T03:04:12.760Z,17.47
2022-08-02T03:06:41.555Z,17.46
2022-08-02T03:09:11.403Z,17.46
2022-08-02T03:11:41.611Z,17.46
2022-08-02T03:14:12.621Z,17.46
2022-08-02T03:16:51.382Z,17.48
2022-08-02T03:19:22.752Z,17.49
2022-08-02T03:21:57.548Z,17.50
2022-08-02T03:24:28.143Z,17.51
2022-08-02T03:26:57.263Z,17.52
2022-08-02T03:29:25.839Z,17.52
2022-08-02T03:31:55.246Z,17.52
2022-08-02T03:34:24.267Z,17.51
2022-08-02T03:36:57.032Z,17.51
2022-08-02T03:39:26.963Z,17.51
2022-08-02T03:41:56.218Z,17.50
2022-08-02T03:44:26.579Z,17.49
2022-08-02T03:46:55.288Z,17.47
2022-08-02T03:49:24.468Z,17.45
2022-08-02T03:51:54.534Z,17.43
2022-08-02T03:54:23.563Z,17.42
2022-08-02T03:57:07.568Z,17.40
2022-08-02T03:59:46.587Z,17.38
2022-08-02T04:02:15.216Z,17.36
2022-08-02T04:04:43.925Z,17.35
2022-08-02T04:07:12.501Z,17.33
2022-08-02T04:09:41.050Z,17.32
2022-08-02T04:12:09.969Z,17.30
2022-08-02T04:14:39.022Z,17.29
2022-08-02T04:17:11.336Z,17.28
2022-08-02T04:19:58.757Z,17.28
2022-08-02T04:22:37.997Z,17.27
2022-08-02T04:25:17.151Z,17.27
2022-08-02T04:27:50.392Z,17.29
2022-08-02T04:30:36.762Z,17.32
2022-08-02T04:33:07.241Z,17.34
2022-08-02T04:35:36.110Z,17.36
2022-08-02T04:38:09.449Z,17.39
2022-08-02T04:40:39.199Z,17.41
2022-08-02T04:43:07.802Z,17.44
2022-08-02T04:45:37.054Z,17.46
2022-08-02T04:48:06.574Z,17.48
2022-08-02T04:50:35.639Z,17.51
2022-08-02T04:53:04.403Z,17.54
2022-08-02T04:55:32.921Z,17.57
2022-08-02T04:58:03.958Z,17.62
2022-08-02T05:00:35.496Z,17.66
2022-08-02T05:03:04.077Z,17.71
2022-08-02T05:05:32.886Z,17.75
2022-08-02T05:08:01.484Z,17.80
2022-08-02T05:10:30.125Z,17.84
2022-08-02T05:12:58.748Z,17.90
2022-08-02T05:15:30.390Z,17.96
2022-08-02T05:18:01.835Z,18.00
2022-08-02T05:20:30.578Z,18.05
2022-08-02T05:22:59.088Z,18.12
2022-08-02T05:25:27.710Z,18.17
2022-08-02T05:27:56.213Z,18.24
2022-08-02T05:30:24.967Z,18.31
2022-08-02T05:32:53.509Z,18.38
2022-08-02T05:35:25.144Z,18.44
2022-08-02T05:37:53.766Z,18.51
2022-08-02T05:40:26.010Z,18.58
2022-08-02T05:42:55.909Z,18.66
2022-08-02T05:45:24.572Z,18.73
2022-08-02T05:47:53.498Z,18.81
2022-08-02T05:50:24.495Z,18.90
2022-08-02T05:53:09.749Z,19.00
2022-08-02T05:55:50.391Z,19.09
2022-08-02T05:58:31.086Z,19.20
2022-08-02T06:01:03.614Z,19.32
2022-08-02T06:03:39.527Z,19.44
2022-08-02T06:06:17.871Z,19.55
2022-08-02T06:08:58.619Z,19.64
2022-08-02T06:11:38.394Z,19.71
2022-08-02T06:14:08.087Z,19.79
2022-08-02T06:16:42.377Z,19.83
2022-08-02T06:19:15.179Z,19.90
2022-08-02T06:22:35.141Z,19.95
2022-08-02T06:24:35.207Z,20.02
2022-08-02T06:27:04.112Z,20.09
2022-08-02T06:29:38.711Z,20.16
2022-08-02T06:32:09.151Z,20.24
2022-08-02T06:34:41.374Z,20.31
2022-08-02T06:37:38.760Z,20.40
2022-08-02T06:40:40.757Z,20.50
2022-08-02T06:43:20.598Z,20.61
2022-08-02T06:45:49.367Z,20.68
2022-08-02T06:48:18.136Z,20.77
2022-08-02T06:50:46.708Z,20.85
2022-08-02T06:53:15.662Z,20.94
2022-08-02T06:55:44.921Z,21.05
2022-08-02T06:58:14.624Z,21.15
2022-08-02T07:00:44.142Z,21.27
2022-08-02T07:10:00.640Z,21.70
2022-08-02T07:12:33.055Z,21.79
2022-08-02T07:15:06.451Z,21.87
2022-08-02T07:17:36.346Z,21.96
2022-08-02T07:20:06.308Z,22.03
2022-08-02T07:22:34.894Z,22.10
2022-08-02T07:25:05.403Z,22.12
2022-08-02T07:27:34.250Z,22.12
2022-08-02T07:30:04.332Z,22.13
2022-08-02T07:38:25.006Z,22.28
2022-08-02T07:40:54.133Z,22.38
2022-08-02T07:43:22.618Z,22.44
2022-08-02T07:45:55.948Z,22.53
2022-08-02T07:48:29.306Z,22.64
2022-08-02T07:50:57.854Z,22.68
2022-08-02T07:53:50.314Z,22.71
2022-08-02T07:56:14.943Z,22.83
2022-08-02T07:58:43.942Z,22.97
2022-08-02T08:01:12.544Z,23.10
2022-08-02T08:03:41.109Z,23.24
2022-08-02T08:06:09.845Z,23.46
2022-08-02T08:08:38.481Z,23.77
2022-08-02T08:11:07.230Z,24.03
2022-08-02T08:13:35.883Z,24.17
2022-08-02T08:16:05.019Z,24.26
2022-08-02T08:18:33.540Z,24.31
2022-08-02T08:21:02.601Z,24.32
2022-08-02T08:23:33.072Z,24.28
2022-08-02T08:26:01.677Z,24.29
2022-08-02T08:28:30.322Z,24.32
2022-08-02T08:30:59.034Z,24.34
2022-08-02T08:33:27.992Z,24.41
2022-08-02T08:35:56.693Z,24.53
2022-08-02T08:38:25.331Z,24.54
2022-08-02T08:40:57.098Z,24.55
2022-08-02T08:43:28.711Z,24.49
2022-08-02T08:45:57.358Z,24.55
2022-08-02T08:48:30.948Z,24.72
2022-08-02T08:51:36.081Z,24.80
2022-08-02T08:54:10.154Z,24.88
2022-08-02T08:56:41.355Z,25.01
2022-08-02T08:59:10.215Z,25.18
2022-08-02T09:01:49.622Z,25.36
2022-08-02T09:04:19.896Z,25.60
2022-08-02T09:06:48.765Z,25.83
2022-08-02T09:09:17.484Z,26.04
2022-08-02T09:11:46.603Z,26.24
2022-08-02T09:14:29.039Z,26.40
2022-08-02T09:17:09.444Z,26.49
2022-08-02T09:19:39.094Z,26.56
2022-08-02T09:22:16.066Z,26.63
2022-08-02T09:24:51.604Z,26.66
2022-08-02T09:27:23.408Z,26.80
2022-08-02T09:30:12.136Z,26.94
2022-08-02T09:32:48.451Z,27.17
2022-08-02T09:36:05.978Z,27.27
2022-08-02T09:38:32.508Z,27.22
2022-08-02T09:41:02.066Z,27.21
2022-08-02T09:44:03.066Z,27.29
2022-08-02T09:46:30.931Z,27.50
2022-08-02T09:49:03.317Z,27.73
2022-08-02T09:51:54.498Z,27.91
2022-08-02T09:54:29.859Z,27.96
2022-08-02T09:57:01.767Z,28.00
2022-08-02T09:59:32.634Z,28.12
2022-08-02T10:02:04.216Z,28.25
2022-08-02T10:04:52.843Z,28.26
2022-08-02T10:07:41.688Z,28.21
2022-08-02T10:10:10.831Z,28.12
2022-08-02T10:12:39.505Z,28.04
2022-08-02T10:15:09.251Z,27.97
2022-08-02T10:17:38.325Z,27.72
2022-08-02T10:20:14.371Z,27.75
2022-08-02T10:22:44.212Z,28.04
2022-08-02T10:25:14.033Z,28.39
2022-08-02T10:28:04.251Z,28.56
2022-08-02T10:30:38.260Z,28.73
2022-08-02T10:33:10.548Z,29.07
2022-08-02T10:35:40.749Z,29.26
2022-08-02T10:38:11.880Z,29.13
2022-08-02T10:40:51.999Z,29.12
2022-08-02T10:43:32.825Z,29.20
2022-08-02T10:46:38.714Z,29.34
2022-08-02T10:49:38.109Z,29.65
2022-08-02T10:52:03.138Z,29.99
2022-08-02T10:54:31.643Z,30.20
2022-08-02T10:57:01.740Z,30.42
2022-08-02T10:59:36.312Z,30.46
2022-08-02T11:02:06.767Z,30.67
2022-08-02T11:04:44.122Z,31.02
2022-08-02T11:07:19.609Z,31.41
2022-08-02T11:09:51.354Z,31.76
2022-08-02T11:12:21.647Z,31.95
2022-08-02T11:15:01.791Z,32.17
2022-08-02T11:17:55.033Z,32.41
2022-08-02T11:20:25.523Z,32.70
2022-08-02T11:23:15.997Z,32.68
2022-08-02T11:26:03.282Z,32.49
2022-08-02T11:28:32.848Z,32.28
2022-08-02T11:31:02.703Z,31.86
2022-08-02T11:33:34.242Z,31.26
2022-08-02T11:36:07.403Z,31.00
2022-08-02T11:38:36.052Z,31.25
2022-08-02T11:41:09.542Z,31.45
2022-08-02T11:43:39.076Z,31.35
2022-08-02T11:46:15.945Z,31.52
2022-08-02T11:48:44.869Z,31.94
2022-08-02T11:51:17.115Z,32.37
2022-08-02T11:53:52.506Z,32.85
2022-08-02T11:56:32.980Z,33.14
2022-08-02T11:59:09.884Z,33.12
2022-08-02T12:01:45.918Z,33.42
2022-08-02T12:04:22.938Z,33.93
2022-08-02T12:06:58.307Z,34.54
2022-08-02T12:09:29.683Z,35.07
2022-08-02T12:12:02.075Z,35.15
2022-08-02T12:14:32.903Z,35.31
2022-08-02T12:17:20.059Z,35.18
2022-08-02T12:19:48.635Z,35.33
2022-08-02T12:22:27.569Z,35.36
2022-08-02T12:24:58.740Z,35.12
2022-08-02T12:27:33.076Z,34.34
2022-08-02T12:30:14.474Z,34.00
2022-08-02T12:32:44.384Z,34.02
2022-08-02T12:35:26.270Z,34.24
2022-08-02T12:37:56.470Z,34.52
2022-08-02T12:40:33.177Z,34.64
2022-08-02T12:43:08.407Z,34.63
2022-08-02T12:45:55.326Z,34.83
2022-08-02T12:48:38.449Z,35.53
2022-08-02T12:51:50.754Z,36.37
2022-08-02T12:54:31.507Z,36.96
2022-08-02T12:57:12.798Z,37.37
2022-08-02T12:59:44.616Z,37.92
2022-08-02T13:02:14.852Z,38.36
2022-08-02T13:04:49.774Z,38.90
2022-08-02T13:07:20.015Z,39.30
2022-08-02T13:09:50.219Z,39.05
2022-08-02T13:12:18.914Z,38.72
2022-08-02T13:14:47.743Z,38.26
2022-08-02T13:17:16.388Z,37.84
2022-08-02T13:19:44.924Z,37.94
2022-08-02T13:22:13.659Z,37.49
2022-08-02T13:24:55.367Z,37.02
2022-08-02T13:27:27.287Z,36.85
2022-08-02T13:29:57.633Z,36.66
2022-08-02T13:32:27.979Z,36.07
2022-08-02T13:34:58.770Z,35.54
2022-08-02T13:37:27.430Z,35.62
2022-08-02T13:40:20.138Z,36.19
2022-08-02T13:42:45.244Z,36.66
2022-08-02T13:45:14.466Z,37.08
2022-08-02T13:48:04.453Z,37.68
2022-08-02T13:50:33.714Z,38.51
2022-08-02T13:53:02.354Z,39.28
2022-08-02T13:55:31.035Z,39.81
2022-08-02T13:57:59.730Z,40.31
2022-08-02T14:00:35.410Z,41.00
2022-08-02T14:03:07.133Z,41.75
2022-08-02T14:05:48.108Z,42.30
2022-08-02T14:08:19.831Z,42.49
2022-08-02T14:10:50.746Z,42.05
2022-08-02T14:13:19.945Z,40.17
2022-08-02T14:15:49.420Z,38.82
2022-08-02T14:18:18.079Z,38.05
2022-08-02T14:20:46.901Z,37.79
2022-08-02T14:23:15.516Z,37.71
2022-08-02T14:25:44.130Z,37.78
2022-08-02T14:28:12.737Z,38.07
2022-08-02T14:30:41.653Z,38.93
2022-08-02T14:33:10.691Z,40.00
2022-08-02T14:35:39.347Z,41.16
2022-08-02T14:38:08.034Z,42.21
2022-08-02T14:40:36.637Z,42.86
2022-08-02T14:43:05.168Z,42.90
2022-08-02T14:45:39.842Z,43.39
2022-08-02T14:48:12.295Z,44.03
2022-08-02T14:50:40.962Z,44.84
2022-08-02T14:53:12.506Z,45.61
2022-08-02T14:55:43.083Z,46.28
2022-08-02T14:58:12.495Z,46.90
2022-08-02T15:00:42.118Z,46.57
2022-08-02T15:03:13.627Z,45.02
2022-08-02T15:05:42.193Z,43.76
2022-08-02T15:08:10.803Z,43.12
2022-08-02T15:10:40.593Z,42.57
2022-08-02T15:13:09.364Z,42.03
2022-08-02T15:15:43.135Z,41.82
2022-08-02T15:18:14.438Z,42.80
2022-08-02T15:20:46.209Z,43.77
2022-08-02T15:23:37.533Z,44.45
2022-08-02T15:26:07.262Z,45.42
2022-08-02T15:28:35.969Z,46.19
2022-08-02T15:31:05.321Z,46.89
2022-08-02T15:33:33.982Z,47.67
2022-08-02T15:36:02.585Z,48.49
2022-08-02T15:38:31.330Z,48.92
2022-08-02T15:40:59.951Z,48.55
2022-08-02T15:43:28.840Z,47.73
2022-08-02T15:45:57.358Z,47.08
2022-08-02T15:48:25.868Z,47.07
2022-08-02T15:50:54.583Z,47.54
2022-08-02T15:53:23.024Z,47.21
2022-08-02T15:56:05.556Z,47.44
2022-08-02T15:58:40.631Z,48.27
2022-08-02T16:01:12.944Z,48.93
2022-08-02T16:03:41.717Z,49.60
2022-08-02T16:06:10.779Z,50.09
2022-08-02T16:08:39.401Z,50.78
2022-08-02T16:11:23.324Z,51.58
2022-08-02T16:13:55.181Z,52.22
2022-08-02T16:16:31.089Z,52.64
2022-08-02T16:19:46.039Z,53.05
2022-08-02T16:21:50.690Z,53.41
2022-08-02T16:24:20.020Z,53.70
2022-08-02T16:26:49.643Z,53.97
2022-08-02T16:29:19.855Z,54.31
2022-08-02T16:31:48.456Z,54.60
2022-08-02T16:34:17.634Z,54.91
2022-08-02T16:36:46.784Z,55.18
2022-08-02T16:39:15.380Z,55.43
2022-08-02T16:41:50.908Z,55.69
2022-08-02T16:47:15.307Z,55.55
2022-08-02T16:50:05.936Z,55.50
2022-08-02T16:52:32.725Z,55.44
2022-08-02T16:55:02.055Z,55.21
2022-08-02T16:57:42.729Z,54.86
2022-08-02T17:00:14.267Z,54.77
2022-08-02T17:02:44.422Z,54.77
2022-08-02T17:05:15.855Z,54.84
2022-08-02T17:08:07.351Z,54.78
2022-08-02T17:10:34.406Z,54.60
2022-08-02T17:13:11.658Z,54.24
2022-08-02T17:16:01.588Z,53.90
2022-08-02T17:18:30.511Z,53.81
2022-08-02T17:20:59.100Z,53.54
2022-08-02T17:24:06.193Z,53.27
2022-08-02T17:26:16.171Z,52.77
2022-08-02T17:29:16.106Z,51.95
2022-08-02T17:31:43.123Z,50.81
2022-08-02T17:34:13.347Z,49.81
2022-08-02T17:36:49.758Z,49.08
2022-08-02T17:39:18.509Z,48.31
2022-08-02T17:41:50.604Z,47.65
2022-08-02T17:44:37.187Z,46.72
2022-08-02T17:47:11.529Z,45.43
2022-08-02T17:49:44.237Z,44.12
2022-08-02T17:55:07.860Z,41.63
2022-08-02T17:57:55.603Z,40.52
2022-08-02T18:00:37.350Z,39.33
2022-08-02T18:03:09.848Z,38.35
2022-08-02T18:05:53.039Z,37.50
2022-08-02T18:08:24.313Z,36.66
2022-08-02T18:10:54.451Z,35.91
2022-08-02T18:13:23.848Z,35.24
2022-08-02T18:15:59.107Z,34.59
2022-08-02T18:18:29.658Z,33.94
2022-08-02T18:21:08.082Z,33.35
2022-08-02T18:23:49.394Z,32.78
2022-08-02T18:26:20.829Z,32.26
2022-08-02T18:28:50.717Z,31.75
2022-08-02T18:31:22.950Z,31.27
2022-08-02T18:33:59.445Z,30.79
2022-08-02T18:36:31.977Z,30.30
2022-08-02T18:39:08.099Z,29.85
2022-08-02T18:41:38.099Z,29.39
2022-08-02T18:44:07.308Z,28.98
2022-08-02T18:46:35.849Z,28.59
2022-08-02T18:49:15.115Z,28.24
2022-08-02T18:52:03.354Z,27.88
2022-08-02T18:54:34.140Z,27.51
2022-08-02T18:57:12.372Z,27.17
2022-08-02T18:59:51.654Z,26.80
2022-08-02T19:02:20.192Z,26.45
2022-08-02T19:04:54.489Z,26.17
2022-08-02T19:07:23.559Z,25.91
2022-08-02T19:10:12.214Z,25.64
2022-08-02T19:12:40.998Z,25.44
2022-08-02T19:15:11.950Z,25.24
2022-08-02T19:17:55.471Z,25.05
2022-08-02T19:20:25.948Z,24.86
2022-08-02T19:22:57.920Z,24.68
2022-08-02T19:25:27.743Z,24.50
2022-08-02T19:27:56.877Z,24.31
2022-08-02T19:30:26.777Z,24.13
2022-08-02T19:33:00.280Z,23.98
2022-08-02T19:35:34.382Z,23.83
2022-08-02T19:38:11.265Z,23.68
2022-08-02T19:40:42.317Z,23.53
2022-08-02T19:44:23.106Z,23.37
2022-08-02T19:46:01.342Z,23.20
2022-08-02T19:48:30.082Z,23.02
2022-08-02T19:51:01.703Z,22.87
2022-08-02T19:53:47.299Z,22.73
2022-08-02T19:56:25.037Z,22.59
2022-08-02T19:58:57.049Z,22.46
2022-08-02T20:01:36.634Z,22.37
2022-08-02T20:04:13.532Z,22.27
2022-08-02T20:06:46.059Z,22.14
2022-08-02T20:12:06.303Z,21.92
2022-08-02T20:14:38.565Z,21.78
2022-08-02T20:17:21.099Z,21.66
2022-08-02T20:19:50.290Z,21.58
2022-08-02T20:22:21.003Z,21.50
2022-08-02T20:24:49.806Z,21.44
2022-08-02T20:27:23.797Z,21.37
2022-08-02T20:29:53.574Z,21.30
2022-08-02T20:32:23.364Z,21.23
2022-08-02T20:34:53.098Z,21.15
2022-08-02T20:40:16.644Z,20.98
2022-08-02T20:42:48.125Z,20.89
2022-08-02T20:45:18.994Z,20.80
2022-08-02T20:47:51.067Z,20.72
2022-08-02T20:50:41.216Z,20.65
2022-08-02T20:53:23.729Z,20.57
2022-08-02T20:55:56.335Z,20.48
2022-08-02T20:58:27.289Z,20.40
2022-08-02T21:01:14.132Z,20.33
2022-08-02T21:03:43.080Z,20.26
2022-08-02T21:06:14.871Z,20.19
2022-08-02T21:08:46.073Z,20.14
2022-08-02T21:11:15.124Z,20.09
2022-08-02T21:13:46.366Z,20.05
2022-08-02T21:16:19.140Z,20.01
2022-08-02T21:18:49.427Z,19.97
2022-08-02T21:21:18.501Z,19.93
2022-08-02T21:23:48.786Z,19.87
2022-08-02T21:26:28.612Z,19.80
2022-08-02T21:29:04.297Z,19.74
2022-08-02T21:31:36.078Z,19.68
2022-08-02T21:34:22.049Z,19.61
2022-08-02T21:36:55.506Z,19.54
2022-08-02T21:39:24.836Z,19.48
2022-08-02T21:41:53.980Z,19.43
2022-08-02T21:44:22.870Z,19.40
2022-08-02T21:46:55.517Z,19.36
2022-08-02T21:49:40.471Z,19.33
2022-08-02T21:52:15.245Z,19.29
2022-08-02T21:54:45.785Z,19.24
2022-08-02T21:57:16.767Z,19.19
2022-08-02T21:59:46.895Z,19.14
2022-08-02T22:02:18.487Z,19.08
2022-08-02T22:04:47.977Z,19.04
2022-08-02T22:07:24.192Z,18.99
2022-08-02T22:09:53.633Z,18.93
2022-08-02T22:12:26.526Z,18.89
2022-08-02T22:14:56.678Z,18.85
2022-08-02T22:17:51.424Z,18.78
2022-08-02T22:20:19.985Z,18.72
2022-08-02T22:22:52.191Z,18.66
2022-08-02T22:25:36.907Z,18.59
2022-08-02T22:28:35.210Z,18.54
2022-08-02T22:31:04.664Z,18.49
2022-08-02T22:34:00.200Z,18.44
2022-08-02T22:36:36.302Z,18.39
2022-08-02T22:39:19.405Z,18.34
2022-08-02T22:42:05.548Z,18.29
2022-08-02T22:44:35.994Z,18.23
2022-08-02T22:47:14.694Z,18.19
2022-08-02T22:49:51.669Z,18.14
2022-08-02T22:52:24.452Z,18.11
2022-08-02T22:54:53.155Z,18.08
2022-08-02T22:57:30.177Z,18.03
2022-08-02T22:58:34.616Z,55.71
2022-08-02T22:58:41.050Z,42.87
2022-08-02T22:58:55.828Z,21.06
2022-08-02T22:59:08.206Z,22.06
2022-08-02T23:00:00.686Z,17.99
2022-08-02T23:02:30.118Z,17.95
2022-08-02T23:04:58.927Z,17.91
2022-08-02T23:07:28.113Z,17.87
2022-08-02T23:10:06.429Z,17.82
2022-08-02T23:12:35.302Z,17.77
2022-08-02T23:15:04.662Z,17.72
2022-08-02T23:17:52.829Z,17.66
2022-08-02T23:20:22.061Z,17.60
2022-08-02T23:22:50.993Z,17.56
2022-08-02T23:25:20.563Z,17.51
2022-08-02T23:27:51.145Z,17.47
2022-08-02T23:30:20.862Z,17.44
2022-08-02T23:32:49.391Z,17.41
2022-08-02T23:35:18.195Z,17.38
2022-08-02T23:38:00.429Z,17.32
2022-08-02T23:40:40.309Z,17.27
2022-08-02T23:43:13.402Z,17.22
2022-08-02T23:45:45.969Z,17.19
2022-08-02T23:48:14.926Z,17.16
2022-08-02T23:50:43.481Z,17.14
2022-08-02T23:53:11.955Z,17.13
2022-08-02T23:55:40.560Z,17.11
2022-08-02T23:58:09.342Z,17.10
